Rogers, AR

2:36 PM CDT on August 27, 2015 (GMT -0500)
Stoney Point | | Change Station
CLOSE
Current Station
Personal Weather Station
Location: Rogers, AR
Elevation: 1388 ft
Nearby Weather Stations

Elev 1388 ft 36.31 °N, 94.10 °W | Updated 3 minutes ago

Clear
Clear
81.0 °F
Feels Like 83 °F
N
3.8
Wind Variable Wind from SSW

Today
High -- | Low -- °F
--% Chance of Precip.
Yesterday
High -- | Low -- °F
Precip. -- in
6:43 AM 7:51 PM
Waxing Gibbous, 94% visible
Pressure 30.11 in
Visibility 10.0 miles
Clouds Clear
Heat Index 83 °F
Dew Point 64 °F
Humidity 57%
Rainfall 0.00 in
Snow Depth Not available.
UV 10 out of 12
Pollen 8.90 out of 12
Air Quality Not available.
Flu Activity Not available.
METAR KROG 271857Z 16006KT 10SM CLR 23/17 A3014 RMK AO2 SLP196 T02330167 $
Pressure 30.11 in
Visibility 10.0 miles
Clouds Clear
Heat Index 83 °F
Dew Point 64 °F
Humidity 57%
Rainfall 0.00 in
Snow Depth Not available.
UV 10 out of 12
Pollen 8.90 out of 12
Air Quality Not available.
Flu Activity Not available.
METAR KROG 271857Z 16006KT 10SM CLR 23/17 A3014 RMK AO2 SLP196 T02330167 $
Nowcast | as of 12:50 PM CDT on August 27, 2015

at 12:45 PM... National Weather Service Doppler radars indicated an overall weakening complex of showers and thunderstorms moving southward through parts of eastern Oklahoma. Most of the rain continued to occur along and east of Highway 75 and north of I 40. Through 2:30 PM... scattered showers and thunderstorms are expected to continue weakening with southward movement across parts of northeast and east central Oklahoma. Moderate to heavy rainfall from thunderstorms will be isolated.

×

10-Day Weather Forecast

×

Almanac

Astronomy

Aug. 27, 2015 Rise Set
Actual Time
Civil Twilight
Nautical Twilight
Astronomical Twilight
Moon
Length of Visible Light
Length of Day
Tomorrow will be .
, % of the Moon is Illuminated

Today's Extremes

State Highs State Lows

Community

WunderPhotos

Upload Photos

1,850,195 photos uploaded!

WunderBlogs® & News

Nearby

Air Quality

  Air Quality AQ Index Pollutant
Not available.

Snow Depth

Station Depth Elevation

Earthquake Activity

City Distance Mag. Time & Date
Minimum magnitude displayed is 2.5.

Coastal Water Temperatures

Place Temperature

Stations

Nearby Weather Stations

Station Location Temp. Windchill Dew Point Humidity Wind Precip. Elev Updated Type